sensor_id;sensor_type;location;lat;lon;timestamp;pressure;altitude;pressure_sealevel;temperature;humidity
34328;BME280;20588;48.840;10.064;2024-01-30T00:02:12;97762.69;;;1.69;100.00
34328;BME280;20588;48.840;10.064;2024-01-30T00:04:38;97768.25;;;1.63;100.00
34328;BME280;20588;48.840;10.064;2024-01-30T00:07:04;97766.34;;;1.55;100.00
34328;BME280;20588;48.840;10.064;2024-01-30T00:09:31;97764.28;;;1.49;100.00
34328;BME280;20588;48.840;10.064;2024-01-30T00:11:57;97772.06;;;1.37;100.00
34328;BME280;20588;48.840;10.064;2024-01-30T00:14:23;97768.28;;;1.31;100.00
34328;BME280;20588;48.840;10.064;2024-01-30T00:16:50;97767.97;;;1.25;100.00
34328;BME280;20588;48.840;10.064;2024-01-30T00:19:16;97775.25;;;1.18;100.00
34328;BME280;20588;48.840;10.064;2024-01-30T00:21:42;97779.06;;;1.13;100.00
34328;BME280;20588;48.840;10.064;2024-01-30T00:24:09;97771.94;;;1.07;100.00
34328;BME280;20588;48.840;10.064;2024-01-30T00:26:35;97770.47;;;1.04;100.00
34328;BME280;20588;48.840;10.064;2024-01-30T00:29:01;97779.22;;;1.00;100.00
34328;BME280;20588;48.840;10.064;2024-01-30T00:31:27;97781.31;;;0.95;100.00
34328;BME280;20588;48.840;10.064;2024-01-30T00:33:53;97780.16;;;0.88;100.00
34328;BME280;20588;48.840;10.064;2024-01-30T00:36:19;97775.69;;;0.81;100.00
34328;BME280;20588;48.840;10.064;2024-01-30T00:38:45;97774.69;;;0.72;100.00
34328;BME280;20588;48.840;10.064;2024-01-30T00:41:11;97779.41;;;0.66;100.00
34328;BME280;20588;48.840;10.064;2024-01-30T00:43:37;97770.09;;;0.55;100.00
34328;BME280;20588;48.840;10.064;2024-01-30T00:46:04;97779.88;;;0.60;100.00
34328;BME280;20588;48.840;10.064;2024-01-30T00:48:30;97785.28;;;0.55;100.00
34328;BME280;20588;48.840;10.064;2024-01-30T00:50:56;97786.34;;;0.53;100.00
34328;BME280;20588;48.840;10.064;2024-01-30T00:53:22;97785.06;;;0.47;100.00
34328;BME280;20588;48.840;10.064;2024-01-30T00:55:48;97785.41;;;0.43;100.00
34328;BME280;20588;48.840;10.064;2024-01-30T00:58:14;97784.16;;;0.37;100.00
34328;BME280;20588;48.840;10.064;2024-01-30T01:00:40;97777.84;;;0.32;100.00
34328;BME280;20588;48.840;10.064;2024-01-30T01:03:06;97784.72;;;0.30;100.00
34328;BME280;20588;48.840;10.064;2024-01-30T01:05:32;97788.53;;;0.24;100.00
34328;BME280;20588;48.840;10.064;2024-01-30T01:07:58;97789.78;;;0.19;100.00
34328;BME280;20588;48.840;10.064;2024-01-30T01:10:24;97785.88;;;0.15;100.00
34328;BME280;20588;48.840;10.064;2024-01-30T01:12:51;97789.69;;;0.09;100.00
34328;BME280;20588;48.840;10.064;2024-01-30T01:15:17;97786.34;;;0.09;100.00
34328;BME280;20588;48.840;10.064;2024-01-30T01:17:43;97775.41;;;0.08;100.00
34328;BME280;20588;48.840;10.064;2024-01-30T01:20:09;97788.03;;;0.08;100.00
34328;BME280;20588;48.840;10.064;2024-01-30T01:22:37;97785.06;;;0.03;100.00
34328;BME280;20588;48.840;10.064;2024-01-30T01:25:04;97791.03;;;0.02;100.00
34328;BME280;20588;48.840;10.064;2024-01-30T01:27:34;97778.59;;;-0.01;100.00
34328;BME280;20588;48.840;10.064;2024-01-30T01:30:04;97785.06;;;0.03;100.00
34328;BME280;20588;48.840;10.064;2024-01-30T01:32:31;97775.84;;;0.02;100.00
34328;BME280;20588;48.840;10.064;2024-01-30T01:34:57;97784.84;;;0.06;100.00
34328;BME280;20588;48.840;10.064;2024-01-30T01:37:23;97777.47;;;0.03;100.00
34328;BME280;20588;48.840;10.064;2024-01-30T01:39:52;97775.19;;;0.00;100.00
34328;BME280;20588;48.840;10.064;2024-01-30T01:42:18;97785.50;;;-0.03;100.00
34328;BME280;20588;48.840;10.064;2024-01-30T01:44:44;97778.03;;;-0.05;100.00
34328;BME280;20588;48.840;10.064;2024-01-30T01:47:11;97776.31;;;-0.04;100.00
34328;BME280;20588;48.840;10.064;2024-01-30T01:49:37;97783.66;;;-0.01;100.00
34328;BME280;20588;48.840;10.064;2024-01-30T01:52:03;97783.44;;;0.02;100.00
34328;BME280;20588;48.840;10.064;2024-01-30T01:54:30;97779.44;;;-0.01;100.00
34328;BME280;20588;48.840;10.064;2024-01-30T01:56:56;97775.06;;;0.02;100.00
34328;BME280;20588;48.840;10.064;2024-01-30T01:59:24;97777.59;;;0.02;100.00
34328;BME280;20588;48.840;10.064;2024-01-30T02:01:51;97778.59;;;-0.01;100.00
34328;BME280;20588;48.840;10.064;2024-01-30T02:04:19;97782.97;;;-0.03;100.00
34328;BME280;20588;48.840;10.064;2024-01-30T02:06:45;97775.19;;;0.00;100.00
34328;BME280;20588;48.840;10.064;2024-01-30T02:09:11;97779.09;;;0.04;100.00
34328;BME280;20588;48.840;10.064;2024-01-30T02:11:38;97778.16;;;0.05;100.00
34328;BME280;20588;48.840;10.064;2024-01-30T02:14:04;97778.97;;;0.06;100.00
34328;BME280;20588;48.840;10.064;2024-01-30T02:16:31;97770.34;;;0.08;100.00
34328;BME280;20588;48.840;10.064;2024-01-30T02:18:57;97782.19;;;0.08;100.00
34328;BME280;20588;48.840;10.064;2024-01-30T02:21:23;97776.56;;;0.04;100.00
34328;BME280;20588;48.840;10.064;2024-01-30T02:23:51;97777.47;;;0.03;100.00
34328;BME280;20588;48.840;10.064;2024-01-30T02:26:18;97775.97;;;0.00;100.00
34328;BME280;20588;48.840;10.064;2024-01-30T02:28:44;97782.78;;;0.00;100.00
34328;BME280;20588;48.840;10.064;2024-01-30T02:31:10;97786.19;;;-0.01;100.00
34328;BME280;20588;48.840;10.064;2024-01-30T02:33:36;97783.66;;;-0.01;100.00
34328;BME280;20588;48.840;10.064;2024-01-30T02:36:02;97787.25;;;-0.04;100.00
34328;BME280;20588;48.840;10.064;2024-01-30T02:38:28;97788.03;;;-0.03;100.00
34328;BME280;20588;48.840;10.064;2024-01-30T02:40:55;97785.84;;;-0.08;100.00
34328;BME280;20588;48.840;10.064;2024-01-30T02:43:22;97785.84;;;-0.08;100.00
34328;BME280;20588;48.840;10.064;2024-01-30T02:45:48;97779.19;;;-0.09;100.00
34328;BME280;20588;48.840;10.064;2024-01-30T02:48:14;97786.75;;;-0.09;100.00
34328;BME280;20588;48.840;10.064;2024-01-30T02:50:40;97775.84;;;-0.09;100.00
34328;BME280;20588;48.840;10.064;2024-01-30T02:53:06;97781.72;;;-0.09;100.00
34328;BME280;20588;48.840;10.064;2024-01-30T02:55:32;97774.34;;;-0.12;100.00
34328;BME280;20588;48.840;10.064;2024-01-30T02:57:58;97775.28;;;-0.13;100.00
34328;BME280;20588;48.840;10.064;2024-01-30T03:00:25;97776.28;;;-0.15;100.00
34328;BME280;20588;48.840;10.064;2024-01-30T03:02:51;97780.66;;;-0.17;100.00
34328;BME280;20588;48.840;10.064;2024-01-30T03:05:17;97774.91;;;-0.19;100.00
34328;BME280;20588;48.840;10.064;2024-01-30T03:07:43;97773.97;;;-0.18;100.00
34328;BME280;20588;48.840;10.064;2024-01-30T03:10:09;97773.31;;;-0.20;100.00
34328;BME280;20588;48.840;10.064;2024-01-30T03:12:36;97773.75;;;-0.26;100.00
34328;BME280;20588;48.840;10.064;2024-01-30T03:15:02;97772.25;;;-0.29;100.00
34328;BME280;20588;48.840;10.064;2024-01-30T03:17:28;97775.00;;;-0.32;100.00
34328;BME280;20588;48.840;10.064;2024-01-30T03:19:54;97776.13;;;-0.36;100.00
34328;BME280;20588;48.840;10.064;2024-01-30T03:22:20;97781.53;;;-0.40;100.00
34328;BME280;20588;48.840;10.064;2024-01-30T03:24:46;97781.03;;;-0.45;100.00
34328;BME280;20588;48.840;10.064;2024-01-30T03:27:12;97778.06;;;-0.50;100.00
34328;BME280;20588;48.840;10.064;2024-01-30T03:29:38;97779.19;;;-0.54;100.00
34328;BME280;20588;48.840;10.064;2024-01-30T03:32:05;97780.31;;;-0.58;100.00
34328;BME280;20588;48.840;10.064;2024-01-30T03:34:31;97778.03;;;-0.61;100.00
34328;BME280;20588;48.840;10.064;2024-01-30T03:36:57;97781.69;;;-0.65;100.00
34328;BME280;20588;48.840;10.064;2024-01-30T03:39:23;97774.34;;;-0.68;100.00
34328;BME280;20588;48.840;10.064;2024-01-30T03:41:49;97777.66;;;-0.68;100.00
34328;BME280;20588;48.840;10.064;2024-01-30T03:44:15;97785.66;;;-0.74;100.00
34328;BME280;20588;48.840;10.064;2024-01-30T03:46:42;97780.13;;;-0.79;100.00
34328;BME280;20588;48.840;10.064;2024-01-30T03:49:09;97783.69;;;-0.81;100.00
34328;BME280;20588;48.840;10.064;2024-01-30T03:51:35;97780.66;;;-0.86;100.00
34328;BME280;20588;48.840;10.064;2024-01-30T03:54:01;97779.88;;;-0.87;100.00
34328;BME280;20588;48.840;10.064;2024-01-30T03:56:27;97773.09;;;-0.86;100.00
34328;BME280;20588;48.840;10.064;2024-01-30T03:58:53;97773.09;;;-0.86;100.00
34328;BME280;20588;48.840;10.064;2024-01-30T04:01:19;97775.72;;;-0.88;100.00
34328;BME280;20588;48.840;10.064;2024-01-30T04:03:45;97787.78;;;-0.91;100.00
34328;BME280;20588;48.840;10.064;2024-01-30T04:06:11;97785.47;;;-0.94;100.00
34328;BME280;20588;48.840;10.064;2024-01-30T04:08:37;97779.81;;;-0.98;100.00
34328;BME280;20588;48.840;10.064;2024-01-30T04:11:07;97786.91;;;-1.03;100.00
34328;BME280;20588;48.840;10.064;2024-01-30T04:13:33;97797.91;;;-1.04;100.00
34328;BME280;20588;48.840;10.064;2024-01-30T04:16:00;97791.94;;;-1.03;100.00
34328;BME280;20588;48.840;10.064;2024-01-30T04:18:29;97796.41;;;-1.06;100.00
34328;BME280;20588;48.840;10.064;2024-01-30T04:20:55;97794.13;;;-1.09;100.00
34328;BME280;20588;48.840;10.064;2024-01-30T04:23:22;97796.03;;;-1.13;100.00
34328;BME280;20588;48.840;10.064;2024-01-30T04:25:48;97803.72;;;-1.14;100.00
34328;BME280;20588;48.840;10.064;2024-01-30T04:28:14;97803.00;;;-1.16;100.00
34328;BME280;20588;48.840;10.064;2024-01-30T04:30:40;97798.88;;;-1.17;100.00
34328;BME280;20588;48.840;10.064;2024-01-30T04:33:06;97801.59;;;-1.20;100.00
34328;BME280;20588;48.840;10.064;2024-01-30T04:35:32;97802.31;;;-1.18;100.00
34328;BME280;20588;48.840;10.064;2024-01-30T04:37:58;97796.56;;;-1.20;100.00
34328;BME280;20588;48.840;10.064;2024-01-30T04:40:24;97799.09;;;-1.20;100.00
34328;BME280;20588;48.840;10.064;2024-01-30T04:42:51;97798.47;;;-1.24;100.00
34328;BME280;20588;48.840;10.064;2024-01-30T04:45:17;97804.34;;;-1.23;100.00
34328;BME280;20588;48.840;10.064;2024-01-30T04:47:43;97803.63;;;-1.25;100.00
34328;BME280;20588;48.840;10.064;2024-01-30T04:50:09;97803.44;;;-1.22;100.00
34328;BME280;20588;48.840;10.064;2024-01-30T04:52:35;97796.06;;;-1.25;100.00
34328;BME280;20588;48.840;10.064;2024-01-30T04:55:01;97802.84;;;-1.26;100.00
34328;BME280;20588;48.840;10.064;2024-01-30T04:57:28;97808.78;;;-1.27;100.00
34328;BME280;20588;48.840;10.064;2024-01-30T04:59:54;97810.03;;;-1.32;100.00
34328;BME280;20588;48.840;10.064;2024-01-30T05:02:20;97806.78;;;-1.34;100.00
34328;BME280;20588;48.840;10.064;2024-01-30T05:04:46;97806.88;;;-1.36;100.00
34328;BME280;20588;48.840;10.064;2024-01-30T05:07:12;97807.81;;;-1.37;100.00
34328;BME280;20588;48.840;10.064;2024-01-30T05:09:38;97812.97;;;-1.38;100.00
34328;BME280;20588;48.840;10.064;2024-01-30T05:12:04;97814.88;;;-1.42;100.00
34328;BME280;20588;48.840;10.064;2024-01-30T05:14:31;97811.69;;;-1.44;100.00
34328;BME280;20588;48.840;10.064;2024-01-30T05:16:57;97814.31;;;-1.45;100.00
34328;BME280;20588;48.840;10.064;2024-01-30T05:19:23;97814.31;;;-1.45;100.00
34328;BME280;20588;48.840;10.064;2024-01-30T05:21:50;97814.31;;;-1.45;100.00
34328;BME280;20588;48.840;10.064;2024-01-30T05:24:16;97818.53;;;-1.46;100.00
34328;BME280;20588;48.840;10.064;2024-01-30T05:26:42;97813.59;;;-1.47;100.00
34328;BME280;20588;48.840;10.064;2024-01-30T05:29:08;97824.56;;;-1.48;100.00
34328;BME280;20588;48.840;10.064;2024-01-30T05:31:34;97819.63;;;-1.50;100.00
34328;BME280;20588;48.840;10.064;2024-01-30T05:34:01;97814.47;;;-1.48;100.00
34328;BME280;20588;48.840;10.064;2024-01-30T05:36:27;97809.63;;;-1.51;100.00
34328;BME280;20588;48.840;10.064;2024-01-30T05:38:53;97809.44;;;-1.48;100.00
34328;BME280;20588;48.840;10.064;2024-01-30T05:41:20;97807.72;;;-1.48;100.00
34328;BME280;20588;48.840;10.064;2024-01-30T05:43:47;97813.69;;;-1.49;100.00
34328;BME280;20588;48.840;10.064;2024-01-30T05:46:13;97808.84;;;-1.52;100.00
34328;BME280;20588;48.840;10.064;2024-01-30T05:48:39;97817.31;;;-1.53;100.00
34328;BME280;20588;48.840;10.064;2024-01-30T05:51:06;97823.28;;;-1.54;100.00
34328;BME280;20588;48.840;10.064;2024-01-30T05:53:33;97820.84;;;-1.55;100.00
34328;BME280;20588;48.840;10.064;2024-01-30T05:56:03;97822.66;;;-1.57;100.00
34328;BME280;20588;48.840;10.064;2024-01-30T05:58:29;97817.72;;;-1.59;100.00
34328;BME280;20588;48.840;10.064;2024-01-30T06:00:57;97822.78;;;-1.59;100.00
34328;BME280;20588;48.840;10.064;2024-01-30T06:03:23;97823.59;;;-1.58;100.00
34328;BME280;20588;48.840;10.064;2024-01-30T06:05:49;97820.34;;;-1.60;100.00
34328;BME280;20588;48.840;10.064;2024-01-30T06:08:15;97817.81;;;-1.60;100.00
34328;BME280;20588;48.840;10.064;2024-01-30T06:10:41;97820.34;;;-1.60;100.00
34328;BME280;20588;48.840;10.064;2024-01-30T06:13:07;97816.22;;;-1.61;100.00
34328;BME280;20588;48.840;10.064;2024-01-30T06:15:33;97817.03;;;-1.61;100.00
34328;BME280;20588;48.840;10.064;2024-01-30T06:18:00;97814.53;;;-1.61;100.00
34328;BME280;20588;48.840;10.064;2024-01-30T06:20:26;97817.16;;;-1.62;100.00
34328;BME280;20588;48.840;10.064;2024-01-30T06:22:52;97829.84;;;-1.64;100.00
34328;BME280;20588;48.840;10.064;2024-01-30T06:25:18;97820.56;;;-1.63;100.00
34328;BME280;20588;48.840;10.064;2024-01-30T06:27:44;97819.66;;;-1.62;100.00
34328;BME280;20588;48.840;10.064;2024-01-30T06:30:11;97823.78;;;-1.61;100.00
34328;BME280;20588;48.840;10.064;2024-01-30T06:32:37;97821.28;;;-1.61;100.00
34328;BME280;20588;48.840;10.064;2024-01-30T06:35:03;97815.19;;;-1.59;100.00
34328;BME280;20588;48.840;10.064;2024-01-30T06:37:30;97820.97;;;-1.57;100.00
34328;BME280;20588;48.840;10.064;2024-01-30T06:39:56;97818.22;;;-1.54;100.00
34328;BME280;20588;48.840;10.064;2024-01-30T06:42:22;97813.69;;;-1.49;100.00
34328;BME280;20588;48.840;10.064;2024-01-30T06:44:48;97817.41;;;-1.42;100.00
34328;BME280;20588;48.840;10.064;2024-01-30T06:47:14;97813.47;;;-1.33;100.00
34328;BME280;20588;48.840;10.064;2024-01-30T06:49:40;97817.78;;;-1.23;100.00
34328;BME280;20588;48.840;10.064;2024-01-30T06:52:08;97822.09;;;-1.12;100.00
34328;BME280;20588;48.840;10.064;2024-01-30T06:54:34;97813.88;;;-1.03;100.00
34328;BME280;20588;48.840;10.064;2024-01-30T06:57:00;97822.09;;;-0.89;100.00
34328;BME280;20588;48.840;10.064;2024-01-30T06:59:26;97820.91;;;-0.72;100.00
34328;BME280;20588;48.840;10.064;2024-01-30T07:01:52;97816.66;;;-0.48;100.00
34328;BME280;20588;48.840;10.064;2024-01-30T07:04:18;97824.44;;;-0.28;100.00
34328;BME280;20588;48.840;10.064;2024-01-30T07:06:45;97819.53;;;-0.07;100.00
34328;BME280;20588;48.840;10.064;2024-01-30T07:09:11;97825.19;;;0.19;100.00
34328;BME280;20588;48.840;10.064;2024-01-30T07:11:37;97822.22;;;0.36;100.00
34328;BME280;20588;48.840;10.064;2024-01-30T07:14:03;97822.91;;;0.60;100.00
34328;BME280;20588;48.840;10.064;2024-01-30T07:16:30;97823.25;;;0.77;100.00
34328;BME280;20588;48.840;10.064;2024-01-30T07:18:56;97834.94;;;1.00;100.00
34328;BME280;20588;48.840;10.064;2024-01-30T07:21:23;97826.63;;;1.20;100.00
34328;BME280;20588;48.840;10.064;2024-01-30T07:23:57;97829.28;;;1.50;100.00
34328;BME280;20588;48.840;10.064;2024-01-30T07:26:23;97835.81;;;1.84;100.00
34328;BME280;20588;48.840;10.064;2024-01-30T07:28:49;97831.06;;;2.12;100.00
34328;BME280;20588;48.840;10.064;2024-01-30T07:31:16;97833.75;;;2.20;100.00
34328;BME280;20588;48.840;10.064;2024-01-30T07:33:42;97842.50;;;2.27;100.00
34328;BME280;20588;48.840;10.064;2024-01-30T07:36:08;97837.59;;;2.35;100.00
34328;BME280;20588;48.840;10.064;2024-01-30T07:38:34;97842.69;;;2.44;100.00
34328;BME280;20588;48.840;10.064;2024-01-30T07:41:00;97844.59;;;2.52;100.00
34328;BME280;20588;48.840;10.064;2024-01-30T07:43:26;97845.22;;;2.65;100.00
34328;BME280;20588;48.840;10.064;2024-01-30T07:45:52;97847.38;;;2.79;100.00
34328;BME280;20588;48.840;10.064;2024-01-30T07:48:19;97843.81;;;2.91;100.00
34328;BME280;20588;48.840;10.064;2024-01-30T07:50:45;97857.66;;;3.07;99.87
34328;BME280;20588;48.840;10.064;2024-01-30T07:53:11;97851.78;;;3.26;98.92
34328;BME280;20588;48.840;10.064;2024-01-30T07:55:37;97845.00;;;3.45;97.94
34328;BME280;20588;48.840;10.064;2024-01-30T07:58:03;97847.44;;;3.66;96.24
34328;BME280;20588;48.840;10.064;2024-01-30T08:00:30;97843.78;;;3.97;95.40
34328;BME280;20588;48.840;10.064;2024-01-30T08:02:57;97851.88;;;4.39;94.16
34328;BME280;20588;48.840;10.064;2024-01-30T08:05:23;97843.59;;;5.00;91.84
34328;BME280;20588;48.840;10.064;2024-01-30T08:07:50;97840.47;;;5.86;88.55
34328;BME280;20588;48.840;10.064;2024-01-30T08:10:16;97841.78;;;7.00;83.25
34328;BME280;20588;48.840;10.064;2024-01-30T08:12:44;97839.53;;;7.71;78.45
34328;BME280;20588;48.840;10.064;2024-01-30T08:15:11;97845.47;;;8.12;73.81
34328;BME280;20588;48.840;10.064;2024-01-30T08:17:38;97844.38;;;8.22;71.06
34328;BME280;20588;48.840;10.064;2024-01-30T08:20:04;97845.31;;;8.29;67.82
34328;BME280;20588;48.840;10.064;2024-01-30T08:22:31;97840.28;;;8.60;67.48
34328;BME280;20588;48.840;10.064;2024-01-30T08:24:57;97836.91;;;9.06;65.23
34328;BME280;20588;48.840;10.064;2024-01-30T08:27:23;97837.09;;;9.58;63.99
34328;BME280;20588;48.840;10.064;2024-01-30T08:29:49;97837.88;;;10.03;61.66
34328;BME280;20588;48.840;10.064;2024-01-30T08:32:16;97838.09;;;10.39;59.53
34328;BME280;20588;48.840;10.064;2024-01-30T08:34:42;97837.50;;;10.66;57.74
34328;BME280;20588;48.840;10.064;2024-01-30T08:37:08;97833.94;;;11.32;55.72
34328;BME280;20588;48.840;10.064;2024-01-30T08:39:34;97839.56;;;12.19;53.82
34328;BME280;20588;48.840;10.064;2024-01-30T08:42:00;97837.75;;;12.75;52.79
34328;BME280;20588;48.840;10.064;2024-01-30T08:44:26;97830.41;;;12.78;51.81
34328;BME280;20588;48.840;10.064;2024-01-30T08:46:53;97830.44;;;12.44;51.61
34328;BME280;20588;48.840;10.064;2024-01-30T08:49:20;97826.03;;;11.90;52.46
34328;BME280;20588;48.840;10.064;2024-01-30T08:51:46;97827.78;;;11.47;53.92
34328;BME280;20588;48.840;10.064;2024-01-30T08:54:13;97835.88;;;11.09;54.51
34328;BME280;20588;48.840;10.064;2024-01-30T08:56:39;97841.81;;;10.80;55.42
34328;BME280;20588;48.840;10.064;2024-01-30T08:59:05;97831.88;;;10.77;55.95
34328;BME280;20588;48.840;10.064;2024-01-30T09:01:31;97836.91;;;11.14;55.58
34328;BME280;20588;48.840;10.064;2024-01-30T09:03:57;97834.78;;;11.53;55.08
34328;BME280;20588;48.840;10.064;2024-01-30T09:06:23;97835.13;;;12.07;53.69
34328;BME280;20588;48.840;10.064;2024-01-30T09:08:52;97834.13;;;12.35;52.71
34328;BME280;20588;48.840;10.064;2024-01-30T09:11:18;97829.81;;;12.42;52.28
34328;BME280;20588;48.840;10.064;2024-01-30T09:13:45;97832.97;;;12.72;51.64
34328;BME280;20588;48.840;10.064;2024-01-30T09:16:11;97831.88;;;13.35;50.77
34328;BME280;20588;48.840;10.064;2024-01-30T09:18:37;97833.00;;;14.05;49.87
34328;BME280;20588;48.840;10.064;2024-01-30T09:21:03;97832.19;;;14.64;48.38
34328;BME280;20588;48.840;10.064;2024-01-30T09:23:29;97831.53;;;15.45;46.74
34328;BME280;20588;48.840;10.064;2024-01-30T09:25:56;97831.72;;;15.81;44.95
34328;BME280;20588;48.840;10.064;2024-01-30T09:28:22;97829.16;;;15.37;45.02
34328;BME280;20588;48.840;10.064;2024-01-30T09:30:48;97831.56;;;14.75;45.85
34328;BME280;20588;48.840;10.064;2024-01-30T09:33:14;97840.16;;;14.75;46.67
34328;BME280;20588;48.840;10.064;2024-01-30T09:35:40;97838.84;;;15.54;45.33
34328;BME280;20588;48.840;10.064;2024-01-30T09:38:06;97832.59;;;16.67;44.12
34328;BME280;20588;48.840;10.064;2024-01-30T09:40:32;97836.00;;;17.69;42.28
34328;BME280;20588;48.840;10.064;2024-01-30T09:42:59;97833.75;;;18.83;39.67
34328;BME280;20588;48.840;10.064;2024-01-30T09:45:28;97827.81;;;19.95;38.92
34328;BME280;20588;48.840;10.064;2024-01-30T09:47:55;97828.47;;;20.89;36.86
34328;BME280;20588;48.840;10.064;2024-01-30T09:50:21;97826.59;;;21.76;36.03
34328;BME280;20588;48.840;10.064;2024-01-30T09:52:48;97828.38;;;22.70;34.66
34328;BME280;20588;48.840;10.064;2024-01-30T09:55:15;97816.34;;;23.26;33.45
34328;BME280;20588;48.840;10.064;2024-01-30T09:57:42;97821.41;;;23.63;32.79
34328;BME280;20588;48.840;10.064;2024-01-30T10:00:09;97821.41;;;23.63;32.65
34328;BME280;20588;48.840;10.064;2024-01-30T10:02:35;97817.94;;;23.42;32.28
34328;BME280;20588;48.840;10.064;2024-01-30T10:05:02;97823.41;;;23.26;32.76
34328;BME280;20588;48.840;10.064;2024-01-30T10:07:30;97817.53;;;23.03;33.14
34328;BME280;20588;48.840;10.064;2024-01-30T10:09:56;97817.03;;;23.17;32.72
34328;BME280;20588;48.840;10.064;2024-01-30T10:12:23;97816.41;;;23.56;32.38
34328;BME280;20588;48.840;10.064;2024-01-30T10:14:51;97811.47;;;24.20;31.87
34328;BME280;20588;48.840;10.064;2024-01-30T10:17:17;97814.66;;;24.22;31.35
34328;BME280;20588;48.840;10.064;2024-01-30T10:19:43;97803.56;;;24.10;32.13
34328;BME280;20588;48.840;10.064;2024-01-30T10:22:10;97813.03;;;24.01;31.90
34328;BME280;20588;48.840;10.064;2024-01-30T10:24:36;97802.19;;;24.57;31.27
34328;BME280;20588;48.840;10.064;2024-01-30T10:27:05;97805.13;;;24.46;31.29
34328;BME280;20588;48.840;10.064;2024-01-30T10:29:31;97800.69;;;24.21;31.55
34328;BME280;20588;48.840;10.064;2024-01-30T10:32:02;97804.06;;;23.67;31.86
34328;BME280;20588;48.840;10.064;2024-01-30T10:34:28;97803.88;;;23.11;33.54
34328;BME280;20588;48.840;10.064;2024-01-30T10:37:10;97804.31;;;23.55;31.67
34328;BME280;20588;48.840;10.064;2024-01-30T10:39:43;97803.84;;;23.98;31.39
34328;BME280;20588;48.840;10.064;2024-01-30T10:42:14;97799.88;;;24.36;30.89
34328;BME280;20588;48.840;10.064;2024-01-30T10:45:06;97791.50;;;25.13;30.55
34328;BME280;20588;48.840;10.064;2024-01-30T10:47:35;97799.97;;;26.02;29.47
34328;BME280;20588;48.840;10.064;2024-01-30T10:50:05;97795.81;;;26.77;27.81
34328;BME280;20588;48.840;10.064;2024-01-30T10:52:32;97789.53;;;27.15;27.45
34328;BME280;20588;48.840;10.064;2024-01-30T10:54:59;97789.78;;;26.95;27.43
34328;BME280;20588;48.840;10.064;2024-01-30T10:57:28;97780.66;;;26.06;28.47
34328;BME280;20588;48.840;10.064;2024-01-30T10:59:57;97781.06;;;24.93;29.01
34328;BME280;20588;48.840;10.064;2024-01-30T11:02:25;97782.22;;;23.66;30.45
34328;BME280;20588;48.840;10.064;2024-01-30T11:04:56;97782.25;;;22.79;32.61
34328;BME280;20588;48.840;10.064;2024-01-30T11:07:27;97779.63;;;22.84;33.43
34328;BME280;20588;48.840;10.064;2024-01-30T11:12:24;97789.47;;;23.19;29.64
34328;BME280;20588;48.840;10.064;2024-01-30T11:15:07;97779.22;;;23.17;28.64
34328;BME280;20588;48.840;10.064;2024-01-30T11:18:00;97781.00;;;22.97;28.85
34328;BME280;20588;48.840;10.064;2024-01-30T11:20:31;97787.06;;;22.51;29.08
34328;BME280;20588;48.840;10.064;2024-01-30T11:22:58;97786.97;;;22.41;29.51
34328;BME280;20588;48.840;10.064;2024-01-30T11:25:25;97785.09;;;22.73;29.09
34328;BME280;20588;48.840;10.064;2024-01-30T11:27:53;97779.06;;;23.44;28.54
34328;BME280;20588;48.840;10.064;2024-01-30T11:30:26;97780.16;;;24.23;28.16
34328;BME280;20588;48.840;10.064;2024-01-30T11:35:35;97775.03;;;24.77;27.37
34328;BME280;20588;48.840;10.064;2024-01-30T11:38:02;97765.84;;;24.74;27.67
34328;BME280;20588;48.840;10.064;2024-01-30T11:40:29;97776.19;;;24.36;27.60
34328;BME280;20588;48.840;10.064;2024-01-30T11:42:58;97769.88;;;23.62;28.25
34328;BME280;20588;48.840;10.064;2024-01-30T11:45:24;97770.41;;;22.77;29.30
34328;BME280;20588;48.840;10.064;2024-01-30T11:47:50;97773.13;;;22.09;30.24
34328;BME280;20588;48.840;10.064;2024-01-30T11:50:17;97769.91;;;21.17;30.44
34328;BME280;20588;48.840;10.064;2024-01-30T11:52:43;97762.88;;;20.58;30.98
34328;BME280;20588;48.840;10.064;2024-01-30T11:55:09;97763.03;;;20.13;31.64
34328;BME280;20588;48.840;10.064;2024-01-30T11:57:36;97758.88;;;19.67;32.35
34328;BME280;20588;48.840;10.064;2024-01-30T12:00:03;97766.13;;;19.32;32.74
34328;BME280;20588;48.840;10.064;2024-01-30T12:02:36;97759.31;;;18.92;33.57
34328;BME280;20588;48.840;10.064;2024-01-30T12:05:06;97764.91;;;18.72;34.18
34328;BME280;20588;48.840;10.064;2024-01-30T12:07:33;97757.78;;;18.68;34.46
34328;BME280;20588;48.840;10.064;2024-01-30T12:09:59;97752.41;;;18.46;34.69
34328;BME280;20588;48.840;10.064;2024-01-30T12:12:29;97752.69;;;18.27;34.84
34328;BME280;20588;48.840;10.064;2024-01-30T12:14:56;97753.41;;;18.11;34.88
34328;BME280;20588;48.840;10.064;2024-01-30T12:17:34;97754.31;;;17.93;35.41
34328;BME280;20588;48.840;10.064;2024-01-30T12:20:14;97754.63;;;17.73;35.61
34328;BME280;20588;48.840;10.064;2024-01-30T12:22:42;97755.91;;;17.53;35.56
34328;BME280;20588;48.840;10.064;2024-01-30T12:25:19;97752.31;;;17.36;35.95
34328;BME280;20588;48.840;10.064;2024-01-30T12:27:47;97755.69;;;17.25;36.40
34328;BME280;20588;48.840;10.064;2024-01-30T12:30:17;97756.44;;;17.14;36.34
34328;BME280;20588;48.840;10.064;2024-01-30T12:32:45;97752.97;;;16.90;36.55
34328;BME280;20588;48.840;10.064;2024-01-30T12:35:13;97748.75;;;16.89;36.46
34328;BME280;20588;48.840;10.064;2024-01-30T12:37:40;97748.19;;;16.87;36.92
34328;BME280;20588;48.840;10.064;2024-01-30T12:40:08;97743.06;;;16.81;36.90
34328;BME280;20588;48.840;10.064;2024-01-30T12:42:35;97749.84;;;16.82;36.91
34328;BME280;20588;48.840;10.064;2024-01-30T12:45:03;97740.94;;;16.89;37.04
34328;BME280;20588;48.840;10.064;2024-01-30T12:47:30;97745.56;;;17.05;37.18
34328;BME280;20588;48.840;10.064;2024-01-30T12:49:56;97741.19;;;17.17;36.59
34328;BME280;20588;48.840;10.064;2024-01-30T12:52:22;97742.41;;;17.15;36.50